sensor_id;sensor_type;location;lat;lon;timestamp;P1;durP1;ratioP1;P2;durP2;ratioP2
70733;SDS011;58320;48.804;9.252;2023-03-16T00:01:19;27.05;;;12.18;;
70733;SDS011;58320;48.804;9.252;2023-03-16T00:03:46;24.27;;;11.37;;
70733;SDS011;58320;48.804;9.252;2023-03-16T00:06:12;22.67;;;11.60;;
70733;SDS011;58320;48.804;9.252;2023-03-16T00:08:37;23.83;;;11.57;;
70733;SDS011;58320;48.804;9.252;2023-03-16T00:11:03;23.67;;;11.17;;
70733;SDS011;58320;48.804;9.252;2023-03-16T00:13:29;26.20;;;12.23;;
70733;SDS011;58320;48.804;9.252;2023-03-16T00:15:59;25.65;;;12.48;;
70733;SDS011;58320;48.804;9.252;2023-03-16T00:18:31;23.90;;;12.13;;
70733;SDS011;58320;48.804;9.252;2023-03-16T00:21:03;26.97;;;11.60;;
70733;SDS011;58320;48.804;9.252;2023-03-16T00:23:30;27.75;;;12.00;;
70733;SDS011;58320;48.804;9.252;2023-03-16T00:26:00;23.60;;;12.00;;
70733;SDS011;58320;48.804;9.252;2023-03-16T00:28:29;26.27;;;13.00;;
70733;SDS011;58320;48.804;9.252;2023-03-16T00:31:09;28.08;;;12.68;;
70733;SDS011;58320;48.804;9.252;2023-03-16T00:33:36;23.00;;;11.10;;
70733;SDS011;58320;48.804;9.252;2023-03-16T00:36:03;25.48;;;12.65;;
70733;SDS011;58320;48.804;9.252;2023-03-16T00:38:33;25.73;;;12.68;;
70733;SDS011;58320;48.804;9.252;2023-03-16T00:41:02;23.50;;;11.15;;
70733;SDS011;58320;48.804;9.252;2023-03-16T00:43:35;27.08;;;12.52;;
70733;SDS011;58320;48.804;9.252;2023-03-16T00:46:12;26.07;;;13.23;;
70733;SDS011;58320;48.804;9.252;2023-03-16T00:48:41;25.27;;;12.20;;
70733;SDS011;58320;48.804;9.252;2023-03-16T00:51:11;26.10;;;12.70;;
70733;SDS011;58320;48.804;9.252;2023-03-16T00:53:40;22.27;;;11.88;;
70733;SDS011;58320;48.804;9.252;2023-03-16T00:56:08;24.48;;;10.90;;
70733;SDS011;58320;48.804;9.252;2023-03-16T00:58:35;22.43;;;11.50;;
70733;SDS011;58320;48.804;9.252;2023-03-16T01:01:10;22.50;;;11.45;;
70733;SDS011;58320;48.804;9.252;2023-03-16T01:03:40;22.35;;;11.48;;
70733;SDS011;58320;48.804;9.252;2023-03-16T01:06:07;22.10;;;10.90;;
70733;SDS011;58320;48.804;9.252;2023-03-16T01:08:36;22.77;;;11.47;;
70733;SDS011;58320;48.804;9.252;2023-03-16T01:11:07;21.95;;;10.57;;
70733;SDS011;58320;48.804;9.252;2023-03-16T01:13:40;21.35;;;10.48;;
70733;SDS011;58320;48.804;9.252;2023-03-16T01:16:06;21.88;;;10.82;;
70733;SDS011;58320;48.804;9.252;2023-03-16T01:18:33;21.63;;;10.95;;
70733;SDS011;58320;48.804;9.252;2023-03-16T01:21:00;20.40;;;10.70;;
70733;SDS011;58320;48.804;9.252;2023-03-16T01:23:27;20.73;;;9.85;;
70733;SDS011;58320;48.804;9.252;2023-03-16T01:25:54;22.48;;;11.75;;
70733;SDS011;58320;48.804;9.252;2023-03-16T01:28:21;22.70;;;11.00;;
70733;SDS011;58320;48.804;9.252;2023-03-16T01:30:49;20.23;;;10.98;;
70733;SDS011;58320;48.804;9.252;2023-03-16T01:33:22;21.50;;;10.80;;
70733;SDS011;58320;48.804;9.252;2023-03-16T01:35:51;19.25;;;10.38;;
70733;SDS011;58320;48.804;9.252;2023-03-16T01:38:17;19.58;;;10.77;;
70733;SDS011;58320;48.804;9.252;2023-03-16T01:40:43;19.98;;;11.27;;
70733;SDS011;58320;48.804;9.252;2023-03-16T01:43:09;19.70;;;11.00;;
70733;SDS011;58320;48.804;9.252;2023-03-16T01:51:09;22.38;;;11.63;;
70733;SDS011;58320;48.804;9.252;2023-03-16T01:53:42;24.33;;;12.10;;
70733;SDS011;58320;48.804;9.252;2023-03-16T01:56:10;22.33;;;11.73;;
70733;SDS011;58320;48.804;9.252;2023-03-16T01:58:41;25.17;;;13.27;;
70733;SDS011;58320;48.804;9.252;2023-03-16T02:01:09;22.30;;;11.80;;
70733;SDS011;58320;48.804;9.252;2023-03-16T02:03:37;24.98;;;11.35;;
70733;SDS011;58320;48.804;9.252;2023-03-16T02:08:42;20.63;;;10.60;;
70733;SDS011;58320;48.804;9.252;2023-03-16T02:11:11;20.55;;;9.93;;
70733;SDS011;58320;48.804;9.252;2023-03-16T02:13:42;20.40;;;10.82;;
70733;SDS011;58320;48.804;9.252;2023-03-16T02:16:10;21.85;;;10.70;;
70733;SDS011;58320;48.804;9.252;2023-03-16T02:18:43;18.42;;;10.02;;
70733;SDS011;58320;48.804;9.252;2023-03-16T02:21:13;19.17;;;9.83;;
70733;SDS011;58320;48.804;9.252;2023-03-16T02:24:26;20.33;;;9.70;;
70733;SDS011;58320;48.804;9.252;2023-03-16T02:26:53;21.60;;;10.20;;
70733;SDS011;58320;48.804;9.252;2023-03-16T02:32:14;17.03;;;9.30;;
70733;SDS011;58320;48.804;9.252;2023-03-16T02:34:41;19.42;;;9.25;;
70733;SDS011;58320;48.804;9.252;2023-03-16T02:37:07;20.58;;;9.52;;
70733;SDS011;58320;48.804;9.252;2023-03-16T02:39:35;20.02;;;9.27;;
70733;SDS011;58320;48.804;9.252;2023-03-16T02:42:01;26.13;;;10.05;;
70733;SDS011;58320;48.804;9.252;2023-03-16T02:44:35;17.43;;;9.53;;
70733;SDS011;58320;48.804;9.252;2023-03-16T02:47:05;22.25;;;10.38;;
70733;SDS011;58320;48.804;9.252;2023-03-16T02:49:38;20.58;;;10.27;;
70733;SDS011;58320;48.804;9.252;2023-03-16T02:52:08;21.50;;;10.43;;
70733;SDS011;58320;48.804;9.252;2023-03-16T02:54:35;20.95;;;11.25;;
70733;SDS011;58320;48.804;9.252;2023-03-16T02:57:01;19.57;;;9.93;;
70733;SDS011;58320;48.804;9.252;2023-03-16T02:59:27;23.38;;;11.52;;
70733;SDS011;58320;48.804;9.252;2023-03-16T03:01:52;25.60;;;12.52;;
70733;SDS011;58320;48.804;9.252;2023-03-16T03:04:18;22.40;;;11.83;;
70733;SDS011;58320;48.804;9.252;2023-03-16T03:06:47;26.63;;;12.43;;
70733;SDS011;58320;48.804;9.252;2023-03-16T03:09:13;27.35;;;12.55;;
70733;SDS011;58320;48.804;9.252;2023-03-16T03:11:39;22.98;;;11.25;;
70733;SDS011;58320;48.804;9.252;2023-03-16T03:14:05;23.10;;;10.97;;
70733;SDS011;58320;48.804;9.252;2023-03-16T03:16:31;22.92;;;10.88;;
70733;SDS011;58320;48.804;9.252;2023-03-16T03:18:57;21.20;;;11.48;;
70733;SDS011;58320;48.804;9.252;2023-03-16T03:21:23;19.98;;;9.88;;
70733;SDS011;58320;48.804;9.252;2023-03-16T03:23:49;23.07;;;10.97;;
70733;SDS011;58320;48.804;9.252;2023-03-16T03:26:15;23.25;;;10.68;;
70733;SDS011;58320;48.804;9.252;2023-03-16T03:28:42;23.92;;;11.27;;
70733;SDS011;58320;48.804;9.252;2023-03-16T03:31:18;20.55;;;10.25;;
70733;SDS011;58320;48.804;9.252;2023-03-16T03:33:46;19.03;;;8.87;;
70733;SDS011;58320;48.804;9.252;2023-03-16T03:36:12;19.02;;;10.18;;
70733;SDS011;58320;48.804;9.252;2023-03-16T03:38:38;18.80;;;9.70;;
70733;SDS011;58320;48.804;9.252;2023-03-16T03:41:05;15.77;;;8.65;;
70733;SDS011;58320;48.804;9.252;2023-03-16T03:43:31;18.08;;;9.13;;
70733;SDS011;58320;48.804;9.252;2023-03-16T03:45:58;17.53;;;8.93;;
70733;SDS011;58320;48.804;9.252;2023-03-16T03:48:26;17.83;;;8.98;;
70733;SDS011;58320;48.804;9.252;2023-03-16T03:50:52;20.38;;;9.48;;
70733;SDS011;58320;48.804;9.252;2023-03-16T03:53:18;17.23;;;8.60;;
70733;SDS011;58320;48.804;9.252;2023-03-16T03:55:44;18.90;;;8.93;;
70733;SDS011;58320;48.804;9.252;2023-03-16T03:58:11;21.85;;;9.77;;
70733;SDS011;58320;48.804;9.252;2023-03-16T04:00:37;18.65;;;9.27;;
70733;SDS011;58320;48.804;9.252;2023-03-16T04:03:03;17.50;;;8.82;;
70733;SDS011;58320;48.804;9.252;2023-03-16T04:05:30;19.83;;;9.17;;
70733;SDS011;58320;48.804;9.252;2023-03-16T04:07:56;20.55;;;9.43;;
70733;SDS011;58320;48.804;9.252;2023-03-16T04:10:26;18.52;;;9.40;;
70733;SDS011;58320;48.804;9.252;2023-03-16T04:12:57;18.60;;;8.85;;
70733;SDS011;58320;48.804;9.252;2023-03-16T04:15:24;21.85;;;9.90;;
70733;SDS011;58320;48.804;9.252;2023-03-16T04:17:50;18.93;;;9.40;;
70733;SDS011;58320;48.804;9.252;2023-03-16T04:20:16;18.02;;;9.50;;
70733;SDS011;58320;48.804;9.252;2023-03-16T04:22:47;19.52;;;9.98;;
70733;SDS011;58320;48.804;9.252;2023-03-16T04:25:14;21.65;;;9.70;;
70733;SDS011;58320;48.804;9.252;2023-03-16T04:27:41;18.10;;;9.27;;
70733;SDS011;58320;48.804;9.252;2023-03-16T04:30:09;18.87;;;10.00;;
70733;SDS011;58320;48.804;9.252;2023-03-16T04:32:39;19.35;;;9.32;;
70733;SDS011;58320;48.804;9.252;2023-03-16T04:35:05;19.95;;;9.60;;
70733;SDS011;58320;48.804;9.252;2023-03-16T04:37:32;17.52;;;8.80;;
70733;SDS011;58320;48.804;9.252;2023-03-16T04:39:58;18.27;;;9.13;;
70733;SDS011;58320;48.804;9.252;2023-03-16T04:42:24;18.20;;;9.23;;
70733;SDS011;58320;48.804;9.252;2023-03-16T04:44:50;17.75;;;9.43;;
70733;SDS011;58320;48.804;9.252;2023-03-16T04:47:16;17.20;;;8.98;;
70733;SDS011;58320;48.804;9.252;2023-03-16T04:49:42;20.17;;;9.37;;
70733;SDS011;58320;48.804;9.252;2023-03-16T04:52:08;21.08;;;10.43;;
70733;SDS011;58320;48.804;9.252;2023-03-16T04:54:35;18.63;;;9.57;;
70733;SDS011;58320;48.804;9.252;2023-03-16T04:57:00;20.67;;;10.20;;
70733;SDS011;58320;48.804;9.252;2023-03-16T04:59:27;17.70;;;9.68;;
70733;SDS011;58320;48.804;9.252;2023-03-16T05:01:54;20.65;;;9.90;;
70733;SDS011;58320;48.804;9.252;2023-03-16T05:04:19;24.13;;;10.82;;
70733;SDS011;58320;48.804;9.252;2023-03-16T05:06:46;22.87;;;10.13;;
70733;SDS011;58320;48.804;9.252;2023-03-16T05:09:12;17.80;;;9.15;;
70733;SDS011;58320;48.804;9.252;2023-03-16T05:11:38;19.70;;;10.25;;
70733;SDS011;58320;48.804;9.252;2023-03-16T05:14:04;20.55;;;9.80;;
70733;SDS011;58320;48.804;9.252;2023-03-16T05:16:30;21.57;;;10.37;;
70733;SDS011;58320;48.804;9.252;2023-03-16T05:18:56;20.05;;;10.45;;
70733;SDS011;58320;48.804;9.252;2023-03-16T05:21:23;23.00;;;11.63;;
70733;SDS011;58320;48.804;9.252;2023-03-16T05:23:49;27.38;;;11.90;;
70733;SDS011;58320;48.804;9.252;2023-03-16T05:26:16;22.40;;;10.57;;
70733;SDS011;58320;48.804;9.252;2023-03-16T05:28:43;23.33;;;11.40;;
70733;SDS011;58320;48.804;9.252;2023-03-16T05:31:10;21.60;;;10.75;;
70733;SDS011;58320;48.804;9.252;2023-03-16T05:33:36;22.83;;;11.50;;
70733;SDS011;58320;48.804;9.252;2023-03-16T05:36:02;22.50;;;10.98;;
70733;SDS011;58320;48.804;9.252;2023-03-16T05:38:29;22.50;;;10.70;;
70733;SDS011;58320;48.804;9.252;2023-03-16T05:40:55;25.42;;;10.93;;
70733;SDS011;58320;48.804;9.252;2023-03-16T05:43:25;24.33;;;11.93;;
70733;SDS011;58320;48.804;9.252;2023-03-16T05:45:53;19.25;;;9.70;;
70733;SDS011;58320;48.804;9.252;2023-03-16T05:48:19;20.80;;;10.38;;
70733;SDS011;58320;48.804;9.252;2023-03-16T05:50:46;21.10;;;9.93;;
70733;SDS011;58320;48.804;9.252;2023-03-16T05:53:12;21.85;;;9.93;;
70733;SDS011;58320;48.804;9.252;2023-03-16T05:55:39;20.58;;;10.10;;
70733;SDS011;58320;48.804;9.252;2023-03-16T05:58:05;21.27;;;10.35;;
70733;SDS011;58320;48.804;9.252;2023-03-16T06:00:31;20.07;;;10.17;;
70733;SDS011;58320;48.804;9.252;2023-03-16T06:02:57;25.83;;;12.18;;
70733;SDS011;58320;48.804;9.252;2023-03-16T06:05:24;22.13;;;11.30;;
70733;SDS011;58320;48.804;9.252;2023-03-16T06:07:50;23.48;;;10.85;;
70733;SDS011;58320;48.804;9.252;2023-03-16T06:10:17;25.88;;;12.43;;
70733;SDS011;58320;48.804;9.252;2023-03-16T06:12:45;29.13;;;11.83;;
70733;SDS011;58320;48.804;9.252;2023-03-16T06:15:11;27.52;;;13.27;;
70733;SDS011;58320;48.804;9.252;2023-03-16T06:17:37;30.58;;;13.77;;
70733;SDS011;58320;48.804;9.252;2023-03-16T06:20:04;29.63;;;13.55;;
70733;SDS011;58320;48.804;9.252;2023-03-16T06:22:38;28.37;;;13.17;;
70733;SDS011;58320;48.804;9.252;2023-03-16T06:25:06;31.08;;;13.25;;
70733;SDS011;58320;48.804;9.252;2023-03-16T06:27:33;28.40;;;13.18;;
70733;SDS011;58320;48.804;9.252;2023-03-16T06:30:00;27.13;;;12.13;;
70733;SDS011;58320;48.804;9.252;2023-03-16T06:32:26;26.00;;;12.68;;
70733;SDS011;58320;48.804;9.252;2023-03-16T06:34:51;29.70;;;14.57;;
70733;SDS011;58320;48.804;9.252;2023-03-16T06:37:17;27.55;;;13.20;;
70733;SDS011;58320;48.804;9.252;2023-03-16T06:39:43;26.00;;;12.70;;
70733;SDS011;58320;48.804;9.252;2023-03-16T06:42:09;24.48;;;12.45;;
70733;SDS011;58320;48.804;9.252;2023-03-16T06:44:35;26.30;;;12.65;;
70733;SDS011;58320;48.804;9.252;2023-03-16T06:47:02;25.92;;;12.45;;
70733;SDS011;58320;48.804;9.252;2023-03-16T06:49:28;24.20;;;12.00;;
70733;SDS011;58320;48.804;9.252;2023-03-16T06:51:54;28.25;;;13.65;;
70733;SDS011;58320;48.804;9.252;2023-03-16T06:54:20;25.88;;;13.13;;
70733;SDS011;58320;48.804;9.252;2023-03-16T06:56:46;28.47;;;13.73;;
70733;SDS011;58320;48.804;9.252;2023-03-16T06:59:12;27.47;;;13.00;;
70733;SDS011;58320;48.804;9.252;2023-03-16T07:01:37;25.27;;;12.27;;
70733;SDS011;58320;48.804;9.252;2023-03-16T07:04:03;30.50;;;13.13;;
70733;SDS011;58320;48.804;9.252;2023-03-16T07:06:29;24.77;;;12.43;;
70733;SDS011;58320;48.804;9.252;2023-03-16T07:08:55;24.70;;;12.10;;
70733;SDS011;58320;48.804;9.252;2023-03-16T07:11:21;21.50;;;11.90;;
70733;SDS011;58320;48.804;9.252;2023-03-16T07:13:47;22.90;;;11.15;;
70733;SDS011;58320;48.804;9.252;2023-03-16T07:16:13;26.63;;;12.77;;
70733;SDS011;58320;48.804;9.252;2023-03-16T07:18:38;24.50;;;12.23;;
70733;SDS011;58320;48.804;9.252;2023-03-16T07:21:08;19.60;;;10.35;;
70733;SDS011;58320;48.804;9.252;2023-03-16T07:23:34;19.73;;;10.68;;
70733;SDS011;58320;48.804;9.252;2023-03-16T07:26:00;26.90;;;13.13;;
70733;SDS011;58320;48.804;9.252;2023-03-16T07:28:27;23.20;;;12.88;;
70733;SDS011;58320;48.804;9.252;2023-03-16T07:30:53;25.63;;;12.20;;
70733;SDS011;58320;48.804;9.252;2023-03-16T07:33:19;21.50;;;11.87;;
70733;SDS011;58320;48.804;9.252;2023-03-16T07:35:46;20.30;;;11.15;;
70733;SDS011;58320;48.804;9.252;2023-03-16T07:38:12;23.02;;;13.02;;
70733;SDS011;58320;48.804;9.252;2023-03-16T07:40:38;20.57;;;11.07;;
70733;SDS011;58320;48.804;9.252;2023-03-16T07:43:04;19.45;;;11.20;;
70733;SDS011;58320;48.804;9.252;2023-03-16T07:45:30;21.42;;;11.15;;
70733;SDS011;58320;48.804;9.252;2023-03-16T07:47:56;17.53;;;10.10;;
70733;SDS011;58320;48.804;9.252;2023-03-16T07:50:22;19.10;;;10.00;;
70733;SDS011;58320;48.804;9.252;2023-03-16T07:52:48;18.42;;;10.23;;
70733;SDS011;58320;48.804;9.252;2023-03-16T07:55:14;20.83;;;10.30;;
70733;SDS011;58320;48.804;9.252;2023-03-16T07:57:40;16.75;;;9.38;;
70733;SDS011;58320;48.804;9.252;2023-03-16T08:00:06;17.45;;;9.40;;
70733;SDS011;58320;48.804;9.252;2023-03-16T08:02:34;18.90;;;9.70;;
70733;SDS011;58320;48.804;9.252;2023-03-16T08:05:00;17.98;;;9.60;;
70733;SDS011;58320;48.804;9.252;2023-03-16T08:07:26;17.70;;;9.87;;
70733;SDS011;58320;48.804;9.252;2023-03-16T08:09:52;18.63;;;10.00;;
70733;SDS011;58320;48.804;9.252;2023-03-16T08:12:17;19.60;;;11.10;;
70733;SDS011;58320;48.804;9.252;2023-03-16T08:14:43;16.77;;;9.35;;
70733;SDS011;58320;48.804;9.252;2023-03-16T08:17:10;18.88;;;9.18;;
70733;SDS011;58320;48.804;9.252;2023-03-16T08:19:36;16.50;;;8.70;;
70733;SDS011;58320;48.804;9.252;2023-03-16T08:22:03;15.90;;;8.85;;
70733;SDS011;58320;48.804;9.252;2023-03-16T08:24:30;16.13;;;8.45;;
70733;SDS011;58320;48.804;9.252;2023-03-16T08:26:57;16.20;;;9.23;;
70733;SDS011;58320;48.804;9.252;2023-03-16T08:29:24;14.48;;;8.57;;
70733;SDS011;58320;48.804;9.252;2023-03-16T08:31:54;15.07;;;8.03;;
70733;SDS011;58320;48.804;9.252;2023-03-16T08:34:20;15.45;;;7.82;;
70733;SDS011;58320;48.804;9.252;2023-03-16T08:36:48;13.27;;;8.30;;
70733;SDS011;58320;48.804;9.252;2023-03-16T08:39:13;13.40;;;7.60;;
70733;SDS011;58320;48.804;9.252;2023-03-16T08:41:40;13.60;;;8.02;;
70733;SDS011;58320;48.804;9.252;2023-03-16T08:44:07;13.38;;;7.88;;
70733;SDS011;58320;48.804;9.252;2023-03-16T08:46:34;13.00;;;8.07;;
70733;SDS011;58320;48.804;9.252;2023-03-16T08:49:00;11.73;;;7.03;;
70733;SDS011;58320;48.804;9.252;2023-03-16T08:51:26;14.98;;;8.00;;
70733;SDS011;58320;48.804;9.252;2023-03-16T08:53:53;12.77;;;7.35;;
70733;SDS011;58320;48.804;9.252;2023-03-16T08:56:19;12.70;;;7.60;;
70733;SDS011;58320;48.804;9.252;2023-03-16T08:58:45;13.73;;;7.93;;
70733;SDS011;58320;48.804;9.252;2023-03-16T09:01:12;13.52;;;7.90;;
70733;SDS011;58320;48.804;9.252;2023-03-16T09:03:39;10.82;;;6.82;;
70733;SDS011;58320;48.804;9.252;2023-03-16T09:06:09;11.13;;;6.67;;
70733;SDS011;58320;48.804;9.252;2023-03-16T09:08:37;9.60;;;5.90;;
70733;SDS011;58320;48.804;9.252;2023-03-16T09:11:05;10.05;;;6.00;;
70733;SDS011;58320;48.804;9.252;2023-03-16T09:13:38;10.40;;;6.10;;
70733;SDS011;58320;48.804;9.252;2023-03-16T09:16:13;9.63;;;6.00;;
70733;SDS011;58320;48.804;9.252;2023-03-16T09:18:40;11.43;;;6.70;;
70733;SDS011;58320;48.804;9.252;2023-03-16T09:21:07;9.05;;;5.88;;
70733;SDS011;58320;48.804;9.252;2023-03-16T09:23:37;10.57;;;5.72;;
70733;SDS011;58320;48.804;9.252;2023-03-16T09:26:03;9.27;;;5.45;;
70733;SDS011;58320;48.804;9.252;2023-03-16T09:28:31;9.07;;;4.90;;
70733;SDS011;58320;48.804;9.252;2023-03-16T09:30:59;8.98;;;5.05;;
70733;SDS011;58320;48.804;9.252;2023-03-16T09:33:27;9.60;;;5.60;;
70733;SDS011;58320;48.804;9.252;2023-03-16T09:35:54;8.38;;;4.90;;
70733;SDS011;58320;48.804;9.252;2023-03-16T09:38:21;9.60;;;6.10;;
70733;SDS011;58320;48.804;9.252;2023-03-16T09:40:54;9.70;;;5.00;;
70733;SDS011;58320;48.804;9.252;2023-03-16T09:44:09;13.05;;;5.20;;
70733;SDS011;58320;48.804;9.252;2023-03-16T09:46:46;9.75;;;4.80;;
70733;SDS011;58320;48.804;9.252;2023-03-16T09:49:19;8.70;;;4.75;;
70733;SDS011;58320;48.804;9.252;2023-03-16T09:51:52;11.10;;;5.13;;
70733;SDS011;58320;48.804;9.252;2023-03-16T09:55:02;9.33;;;4.70;;
70733;SDS011;58320;48.804;9.252;2023-03-16T09:57:35;6.95;;;4.35;;
70733;SDS011;58320;48.804;9.252;2023-03-16T10:00:22;7.72;;;4.78;;
70733;SDS011;58320;48.804;9.252;2023-03-16T10:03:17;8.30;;;4.50;;
70733;SDS011;58320;48.804;9.252;2023-03-16T10:06:00;9.95;;;5.05;;
70733;SDS011;58320;48.804;9.252;2023-03-16T10:08:39;9.83;;;4.07;;
70733;SDS011;58320;48.804;9.252;2023-03-16T10:13:54;6.68;;;3.90;;
70733;SDS011;58320;48.804;9.252;2023-03-16T10:18:56;8.88;;;4.05;;
70733;SDS011;58320;48.804;9.252;2023-03-16T10:21:32;7.47;;;3.50;;
70733;SDS011;58320;48.804;9.252;2023-03-16T10:24:11;6.57;;;3.85;;
70733;SDS011;58320;48.804;9.252;2023-03-16T10:26:47;6.65;;;3.88;;
70733;SDS011;58320;48.804;9.252;2023-03-16T10:29:24;6.22;;;3.70;;
70733;SDS011;58320;48.804;9.252;2023-03-16T10:31:53;6.57;;;3.80;;
70733;SDS011;58320;48.804;9.252;2023-03-16T10:34:26;7.63;;;3.60;;
70733;SDS011;58320;48.804;9.252;2023-03-16T10:36:52;6.95;;;3.30;;
70733;SDS011;58320;48.804;9.252;2023-03-16T10:39:19;7.22;;;3.60;;
70733;SDS011;58320;48.804;9.252;2023-03-16T10:41:46;6.90;;;3.30;;
70733;SDS011;58320;48.804;9.252;2023-03-16T10:44:21;5.63;;;3.23;;
70733;SDS011;58320;48.804;9.252;2023-03-16T10:46:56;6.60;;;3.72;;
70733;SDS011;58320;48.804;9.252;2023-03-16T10:49:36;9.70;;;4.28;;
70733;SDS011;58320;48.804;9.252;2023-03-16T10:54:59;8.32;;;3.70;;
70733;SDS011;58320;48.804;9.252;2023-03-16T10:57:39;6.37;;;3.50;;
70733;SDS011;58320;48.804;9.252;2023-03-16T11:00:11;5.60;;;3.28;;
70733;SDS011;58320;48.804;9.252;2023-03-16T11:02:53;6.18;;;3.35;;
70733;SDS011;58320;48.804;9.252;2023-03-16T11:05:25;5.75;;;3.05;;
70733;SDS011;58320;48.804;9.252;2023-03-16T11:10:35;5.90;;;3.30;;
70733;SDS011;58320;48.804;9.252;2023-03-16T11:13:14;5.80;;;3.10;;
70733;SDS011;58320;48.804;9.252;2023-03-16T11:21:02;6.82;;;2.97;;
70733;SDS011;58320;48.804;9.252;2023-03-16T11:23:37;6.13;;;3.00;;
70733;SDS011;58320;48.804;9.252;2023-03-16T11:26:12;5.60;;;3.20;;
70733;SDS011;58320;48.804;9.252;2023-03-16T11:28:49;6.38;;;3.08;;
70733;SDS011;58320;48.804;9.252;2023-03-16T11:31:36;5.13;;;2.47;;
70733;SDS011;58320;48.804;9.252;2023-03-16T11:34:29;4.28;;;2.67;;
70733;SDS011;58320;48.804;9.252;2023-03-16T11:36:59;4.80;;;2.50;;
70733;SDS011;58320;48.804;9.252;2023-03-16T11:43:12;5.88;;;2.30;;
70733;SDS011;58320;48.804;9.252;2023-03-16T11:46:25;5.05;;;2.63;;
70733;SDS011;58320;48.804;9.252;2023-03-16T11:49:08;5.47;;;3.03;;
70733;SDS011;58320;48.804;9.252;2023-03-16T11:51:57;5.17;;;2.40;;
70733;SDS011;58320;48.804;9.252;2023-03-16T11:54:37;6.53;;;2.90;;
70733;SDS011;58320;48.804;9.252;2023-03-16T11:58:02;5.20;;;2.42;;
70733;SDS011;58320;48.804;9.252;2023-03-16T12:01:16;5.07;;;2.40;;
70733;SDS011;58320;48.804;9.252;2023-03-16T12:07:00;4.17;;;1.93;;
70733;SDS011;58320;48.804;9.252;2023-03-16T12:12:35;5.38;;;2.65;;
70733;SDS011;58320;48.804;9.252;2023-03-16T12:15:42;5.28;;;2.90;;
70733;SDS011;58320;48.804;9.252;2023-03-16T12:18:25;6.40;;;2.72;;
70733;SDS011;58320;48.804;9.252;2023-03-16T12:21:20;4.30;;;2.50;;
70733;SDS011;58320;48.804;9.252;2023-03-16T12:23:52;5.35;;;2.72;;
70733;SDS011;58320;48.804;9.252;2023-03-16T12:26:23;4.40;;;2.40;;
70733;SDS011;58320;48.804;9.252;2023-03-16T12:28:54;5.65;;;2.60;;
70733;SDS011;58320;48.804;9.252;2023-03-16T12:31:23;6.40;;;3.28;;
70733;SDS011;58320;48.804;9.252;2023-03-16T12:34:13;4.30;;;2.33;;
70733;SDS011;58320;48.804;9.252;2023-03-16T12:44:44;5.43;;;3.07;;
70733;SDS011;58320;48.804;9.252;2023-03-16T12:50:08;6.00;;;3.17;;
70733;SDS011;58320;48.804;9.252;2023-03-16T12:52:38;5.60;;;2.70;;
70733;SDS011;58320;48.804;9.252;2023-03-16T12:57:38;5.13;;;2.67;;
70733;SDS011;58320;48.804;9.252;2023-03-16T13:00:06;5.80;;;3.05;;
70733;SDS011;58320;48.804;9.252;2023-03-16T13:02:37;6.40;;;3.05;;
70733;SDS011;58320;48.804;9.252;2023-03-16T13:05:16;5.65;;;3.03;;
70733;SDS011;58320;48.804;9.252;2023-03-16T13:08:02;5.32;;;2.78;;
70733;SDS011;58320;48.804;9.252;2023-03-16T13:10:38;5.30;;;2.73;;
70733;SDS011;58320;48.804;9.252;2023-03-16T13:13:09;5.40;;;2.50;;
70733;SDS011;58320;48.804;9.252;2023-03-16T13:15:39;5.40;;;2.72;;
70733;SDS011;58320;48.804;9.252;2023-03-16T13:31:47;6.20;;;3.00;;
70733;SDS011;58320;48.804;9.252;2023-03-16T13:34:14;5.05;;;2.80;;
70733;SDS011;58320;48.804;9.252;2023-03-16T13:36:48;4.53;;;2.83;;
70733;SDS011;58320;48.804;9.252;2023-03-16T13:39:22;4.75;;;2.60;;
70733;SDS011;58320;48.804;9.252;2023-03-16T13:41:54;4.88;;;2.45;;
70733;SDS011;58320;48.804;9.252;2023-03-16T13:44:23;6.47;;;2.50;;
70733;SDS011;58320;48.804;9.252;2023-03-16T13:46:50;7.72;;;2.50;;
70733;SDS011;58320;48.804;9.252;2023-03-16T13:49:17;4.63;;;2.37;;
70733;SDS011;58320;48.804;9.252;2023-03-16T13:51:43;5.53;;;2.90;;
70733;SDS011;58320;48.804;9.252;2023-03-16T13:54:24;4.53;;;3.03;;
70733;SDS011;58320;48.804;9.252;2023-03-16T13:56:57;5.03;;;2.60;;
70733;SDS011;58320;48.804;9.252;2023-03-16T13:59:27;4.13;;;2.40;;
70733;SDS011;58320;48.804;9.252;2023-03-16T14:01:55;5.80;;;3.23;;
70733;SDS011;58320;48.804;9.252;2023-03-16T14:04:27;5.00;;;2.60;;
70733;SDS011;58320;48.804;9.252;2023-03-16T14:06:59;4.20;;;2.60;;
70733;SDS011;58320;48.804;9.252;2023-03-16T14:09:28;5.55;;;3.13;;
70733;SDS011;58320;48.804;9.252;2023-03-16T14:11:58;5.40;;;2.78;;
70733;SDS011;58320;48.804;9.252;2023-03-16T14:16:58;4.25;;;2.85;;
70733;SDS011;58320;48.804;9.252;2023-03-16T14:19:27;5.30;;;2.70;;
70733;SDS011;58320;48.804;9.252;2023-03-16T14:22:02;4.40;;;2.45;;
70733;SDS011;58320;48.804;9.252;2023-03-16T14:27:08;7.03;;;2.60;;
70733;SDS011;58320;48.804;9.252;2023-03-16T14:30:16;6.65;;;2.60;;
70733;SDS011;58320;48.804;9.252;2023-03-16T14:32:55;4.43;;;2.58;;
70733;SDS011;58320;48.804;9.252;2023-03-16T14:35:29;6.40;;;2.88;;
70733;SDS011;58320;48.804;9.252;2023-03-16T14:40:57;7.00;;;3.20;;
70733;SDS011;58320;48.804;9.252;2023-03-16T14:43:32;6.03;;;2.92;;
70733;SDS011;58320;48.804;9.252;2023-03-16T14:46:03;4.32;;;2.50;;
70733;SDS011;58320;48.804;9.252;2023-03-16T14:48:31;8.27;;;2.95;;
70733;SDS011;58320;48.804;9.252;2023-03-16T14:50:59;8.43;;;3.15;;
70733;SDS011;58320;48.804;9.252;2023-03-16T14:53:28;5.67;;;3.20;;
70733;SDS011;58320;48.804;9.252;2023-03-16T14:55:54;5.72;;;2.63;;
70733;SDS011;58320;48.804;9.252;2023-03-16T14:58:21;6.10;;;3.10;;
70733;SDS011;58320;48.804;9.252;2023-03-16T15:00:48;5.10;;;2.90;;
70733;SDS011;58320;48.804;9.252;2023-03-16T15:03:17;6.30;;;2.95;;
70733;SDS011;58320;48.804;9.252;2023-03-16T15:05:48;5.07;;;2.53;;
70733;SDS011;58320;48.804;9.252;2023-03-16T15:10:50;6.28;;;3.38;;
70733;SDS011;58320;48.804;9.252;2023-03-16T15:13:18;5.30;;;3.10;;
70733;SDS011;58320;48.804;9.252;2023-03-16T15:16:09;6.07;;;2.92;;
70733;SDS011;58320;48.804;9.252;2023-03-16T15:18:37;7.67;;;2.97;;
70733;SDS011;58320;48.804;9.252;2023-03-16T15:21:14;5.43;;;2.95;;
70733;SDS011;58320;48.804;9.252;2023-03-16T15:23:46;5.22;;;2.90;;
70733;SDS011;58320;48.804;9.252;2023-03-16T15:26:13;5.35;;;3.08;;
70733;SDS011;58320;48.804;9.252;2023-03-16T15:28:45;5.85;;;2.92;;
70733;SDS011;58320;48.804;9.252;2023-03-16T15:31:11;6.27;;;3.37;;
70733;SDS011;58320;48.804;9.252;2023-03-16T15:33:41;6.88;;;3.10;;
70733;SDS011;58320;48.804;9.252;2023-03-16T15:36:39;6.18;;;3.03;;
70733;SDS011;58320;48.804;9.252;2023-03-16T15:38:58;6.53;;;2.80;;
70733;SDS011;58320;48.804;9.252;2023-03-16T15:41:26;5.43;;;2.70;;
70733;SDS011;58320;48.804;9.252;2023-03-16T15:43:51;5.22;;;2.90;;
70733;SDS011;58320;48.804;9.252;2023-03-16T15:46:24;5.93;;;3.05;;
70733;SDS011;58320;48.804;9.252;2023-03-16T15:48:52;5.25;;;3.08;;
70733;SDS011;58320;48.804;9.252;2023-03-16T15:51:22;6.23;;;3.47;;
70733;SDS011;58320;48.804;9.252;2023-03-16T15:53:52;5.18;;;2.70;;
70733;SDS011;58320;48.804;9.252;2023-03-16T15:56:24;4.80;;;2.80;;
70733;SDS011;58320;48.804;9.252;2023-03-16T15:58:56;5.90;;;2.95;;
70733;SDS011;58320;48.804;9.252;2023-03-16T16:01:26;6.00;;;2.90;;
70733;SDS011;58320;48.804;9.252;2023-03-16T16:03:56;5.13;;;2.80;;
70733;SDS011;58320;48.804;9.252;2023-03-16T16:06:22;7.40;;;2.53;;